createdAt,value
2018-07-15T00:03:56.513Z,13.40
2018-07-15T00:06:24.990Z,13.30
2018-07-15T00:08:53.508Z,13.30
2018-07-15T00:11:22.017Z,13.20
2018-07-15T00:13:50.984Z,13.20
2018-07-15T00:16:19.494Z,13.20
2018-07-15T00:18:48.037Z,13.20
2018-07-15T00:21:16.716Z,13.10
2018-07-15T00:23:45.168Z,13.00
2018-07-15T00:26:13.633Z,13.00
2018-07-15T00:28:42.184Z,13.00
2018-07-15T00:31:10.673Z,12.90
2018-07-15T00:33:39.216Z,12.90
2018-07-15T00:36:07.645Z,13.00
2018-07-15T00:38:36.096Z,13.00
2018-07-15T00:41:04.549Z,13.00
2018-07-15T00:43:33.078Z,12.90
2018-07-15T00:46:01.505Z,12.80
2018-07-15T00:48:30.050Z,12.70
2018-07-15T00:50:59.164Z,12.70
2018-07-15T00:53:27.725Z,12.60
2018-07-15T00:55:56.220Z,12.70
2018-07-15T00:58:24.652Z,12.60
2018-07-15T01:00:58.441Z,12.60
2018-07-15T01:05:55.084Z,12.40
2018-07-15T01:08:23.536Z,12.40
2018-07-15T01:10:51.996Z,12.40
2018-07-15T01:13:20.473Z,12.40
2018-07-15T01:15:48.943Z,12.50
2018-07-15T01:18:17.429Z,12.50
2018-07-15T01:20:45.964Z,12.40
2018-07-15T01:23:14.433Z,12.40
2018-07-15T01:25:42.913Z,12.40
2018-07-15T01:28:11.474Z,12.40
2018-07-15T01:30:39.950Z,12.30
2018-07-15T01:33:08.474Z,12.30
2018-07-15T01:35:36.941Z,12.30
2018-07-15T01:38:05.654Z,12.30
2018-07-15T01:40:34.105Z,12.20
2018-07-15T01:43:02.568Z,12.20
2018-07-15T01:45:31.040Z,12.10
2018-07-15T01:47:59.500Z,12.00
2018-07-15T01:50:28.976Z,12.00
2018-07-15T01:52:57.649Z,12.00
2018-07-15T01:55:26.090Z,12.00
2018-07-15T01:57:54.542Z,12.00
2018-07-15T02:00:23.108Z,12.10
2018-07-15T02:02:51.662Z,12.10
2018-07-15T02:05:20.093Z,12.10
2018-07-15T02:07:48.675Z,12.00
2018-07-15T02:10:17.121Z,11.90
2018-07-15T02:12:45.753Z,11.90
2018-07-15T02:15:15.248Z,11.90
2018-07-15T02:17:43.765Z,11.80
2018-07-15T02:20:12.309Z,11.80
2018-07-15T02:22:40.752Z,11.80
2018-07-15T02:25:09.194Z,11.80
2018-07-15T02:27:38.565Z,11.80
2018-07-15T02:30:07.093Z,11.80
2018-07-15T02:32:35.548Z,11.80
2018-07-15T02:35:04.096Z,11.90
2018-07-15T02:37:33.194Z,11.80
2018-07-15T02:40:01.683Z,11.80
2018-07-15T02:42:30.860Z,11.70
2018-07-15T02:44:59.324Z,11.70
2018-07-15T02:47:27.773Z,11.70
2018-07-15T02:49:56.245Z,11.70
2018-07-15T02:52:24.686Z,11.60
2018-07-15T04:19:52.145Z,11.60
2018-07-15T04:22:21.465Z,11.50
2018-07-15T04:24:49.892Z,11.50
2018-07-15T04:27:18.446Z,11.60
2018-07-15T04:29:47.014Z,11.60
2018-07-15T04:32:15.751Z,11.70
2018-07-15T04:34:44.193Z,11.70
2018-07-15T04:37:12.737Z,11.70
2018-07-15T04:39:41.208Z,11.80
2018-07-15T04:42:09.732Z,11.80
2018-07-15T04:44:38.193Z,11.90
2018-07-15T04:47:06.969Z,11.90
2018-07-15T04:49:36.182Z,11.90
2018-07-15T04:52:04.608Z,12.00
2018-07-15T04:54:33.085Z,12.10
2018-07-15T04:57:01.606Z,12.20
2018-07-15T04:59:30.814Z,12.30
2018-07-15T05:01:59.387Z,12.30
2018-07-15T05:04:27.913Z,12.40
2018-07-15T05:06:56.524Z,12.40
2018-07-15T05:09:25.115Z,12.50
2018-07-15T05:11:53.583Z,12.50
2018-07-15T05:14:22.088Z,12.60
2018-07-15T05:16:50.579Z,12.70
2018-07-15T05:19:18.989Z,12.80
2018-07-15T05:21:47.506Z,12.80
2018-07-15T05:24:16.164Z,12.90
2018-07-15T05:26:44.613Z,13.00
2018-07-15T05:29:13.381Z,13.00
2018-07-15T05:31:41.845Z,13.10
2018-07-15T05:34:10.295Z,13.20
2018-07-15T05:36:38.831Z,13.40
2018-07-15T05:41:35.693Z,13.60
2018-07-15T05:44:04.253Z,13.70
2018-07-15T05:46:33.366Z,13.80
2018-07-15T05:49:01.884Z,13.90
2018-07-15T05:51:30.692Z,14.10
2018-07-15T05:53:59.332Z,14.20
2018-07-15T05:56:27.835Z,14.30
2018-07-15T05:58:56.530Z,14.50
2018-07-15T06:01:25.353Z,14.70
2018-07-15T06:03:53.889Z,14.80
2018-07-15T06:06:22.438Z,14.90
2018-07-15T06:08:51.641Z,15.10
2018-07-15T06:11:20.088Z,15.30
2018-07-15T06:13:48.843Z,15.50
2018-07-15T06:16:17.356Z,15.70
2018-07-15T06:18:45.834Z,16.00
2018-07-15T06:21:14.366Z,16.20
2018-07-15T06:23:42.869Z,16.40
2018-07-15T06:26:11.335Z,16.70
2018-07-15T06:28:39.758Z,16.90
2018-07-15T06:31:08.253Z,17.10
2018-07-15T06:33:36.798Z,17.40
2018-07-15T06:36:05.682Z,17.60
2018-07-15T06:38:34.145Z,17.80
2018-07-15T06:41:02.578Z,18.10
2018-07-15T06:43:31.001Z,18.40
2018-07-15T06:45:59.577Z,18.70
2018-07-15T06:48:28.034Z,18.90
2018-07-15T06:50:56.521Z,19.20
2018-07-15T06:53:24.969Z,19.50
2018-07-15T06:55:53.473Z,19.80
2018-07-15T06:58:21.913Z,20.10
2018-07-15T07:00:50.672Z,20.30
2018-07-15T07:03:19.198Z,20.40
2018-07-15T07:05:47.670Z,20.60
2018-07-15T07:08:16.113Z,20.90
2018-07-15T07:10:44.561Z,21.20
2018-07-15T07:13:13.047Z,21.40
2018-07-15T07:15:41.624Z,21.60
2018-07-15T07:18:10.294Z,21.90
2018-07-15T07:20:38.859Z,22.00
2018-07-15T07:23:07.238Z,22.10
2018-07-15T07:25:36.237Z,22.30
2018-07-15T07:28:04.747Z,22.60
2018-07-15T07:30:33.197Z,22.90
2018-07-15T07:33:01.693Z,23.20
2018-07-15T07:35:30.320Z,23.40
2018-07-15T07:37:58.755Z,23.50
2018-07-15T07:40:27.172Z,23.60
2018-07-15T07:42:55.680Z,24.00
2018-07-15T07:45:24.128Z,24.30
2018-07-15T07:47:53.297Z,24.60
2018-07-15T07:50:21.916Z,24.80
2018-07-15T07:52:50.568Z,25.00
2018-07-15T07:55:19.261Z,25.00
2018-07-15T07:57:47.822Z,25.30
2018-07-15T08:00:16.365Z,25.30
2018-07-15T08:02:44.877Z,25.60
2018-07-15T08:05:13.385Z,25.50
2018-07-15T08:07:42.063Z,25.80
2018-07-15T08:10:10.504Z,25.90
2018-07-15T08:12:39.047Z,26.30
2018-07-15T08:15:07.704Z,26.60
2018-07-15T08:17:37.110Z,26.70
2018-07-15T08:20:05.753Z,26.70
2018-07-15T08:22:34.644Z,26.80
2018-07-15T08:27:31.456Z,26.80
2018-07-15T08:31:10.280Z,26.90
2018-07-15T08:33:38.905Z,27.20
2018-07-15T08:36:08.012Z,27.60
2018-07-15T08:38:36.502Z,28.00
2018-07-15T08:41:05.300Z,27.80
2018-07-15T08:43:34.448Z,27.60
2018-07-15T08:46:03.217Z,27.30
2018-07-15T08:48:31.980Z,27.00
2018-07-15T08:51:00.465Z,26.70
2018-07-15T08:53:28.960Z,26.50
2018-07-15T08:55:57.630Z,26.40
2018-07-15T08:58:26.157Z,26.50
2018-07-15T09:00:54.744Z,26.70
2018-07-15T09:03:23.407Z,27.20
2018-07-15T09:18:56.462Z,27.30
2018-07-15T09:21:25.006Z,27.40
2018-07-15T09:23:53.499Z,27.70
2018-07-15T09:26:22.015Z,27.70
2018-07-15T09:28:50.852Z,27.70
2018-07-15T09:31:19.273Z,27.50
2018-07-15T09:33:47.791Z,27.50
2018-07-15T09:36:16.244Z,27.50
2018-07-15T09:38:44.735Z,27.60
2018-07-15T09:41:13.198Z,27.50
2018-07-15T09:43:41.692Z,28.00
2018-07-15T09:46:10.140Z,28.20
2018-07-15T09:48:38.736Z,27.70
2018-07-15T09:51:07.207Z,27.20
2018-07-15T09:53:35.685Z,26.80
2018-07-15T09:56:04.161Z,26.20
2018-07-15T09:58:32.629Z,25.50
2018-07-15T10:01:01.171Z,24.50
2018-07-15T10:03:29.876Z,23.40
2018-07-15T10:05:58.374Z,22.50
2018-07-15T10:10:55.015Z,21.40
2018-07-15T10:13:23.584Z,21.30
2018-07-15T10:15:52.113Z,21.30
2018-07-15T10:18:20.549Z,21.00
2018-07-15T10:20:49.030Z,20.90
2018-07-15T10:23:17.502Z,20.60
2018-07-15T10:25:46.094Z,20.50
2018-07-15T10:28:14.720Z,20.00
2018-07-15T10:30:43.200Z,19.80
2018-07-15T10:33:11.669Z,19.80
2018-07-15T10:35:40.200Z,19.90
2018-07-15T10:38:08.689Z,19.90
2018-07-15T10:40:37.150Z,20.00
2018-07-15T10:43:05.697Z,19.90
2018-07-15T10:45:34.170Z,20.00
2018-07-15T10:48:02.676Z,19.90
2018-07-15T10:50:31.173Z,20.00
2018-07-15T10:52:59.732Z,20.20
2018-07-15T10:55:28.264Z,20.40
2018-07-15T10:57:57.013Z,21.10
2018-07-15T11:00:25.686Z,21.20
2018-07-15T11:02:56.677Z,22.00
2018-07-15T11:05:29.447Z,23.10
2018-07-15T11:08:01.811Z,23.80
2018-07-15T11:10:37.641Z,23.80
2018-07-15T11:13:06.795Z,23.70
2018-07-15T11:15:37.359Z,24.00
2018-07-15T11:18:11.104Z,23.90
2018-07-15T11:20:43.393Z,24.10
2018-07-15T11:23:16.605Z,24.40
2018-07-15T11:25:48.631Z,24.60
2018-07-15T11:28:21.352Z,24.60
2018-07-15T11:30:54.423Z,25.00
2018-07-15T11:33:25.327Z,25.20
2018-07-15T11:35:59.251Z,25.30
2018-07-15T11:38:30.262Z,25.30
2018-07-15T11:41:01.612Z,25.10
2018-07-15T11:43:32.472Z,25.00
2018-07-15T11:46:05.542Z,24.90
2018-07-15T11:48:38.973Z,25.10
2018-07-15T11:51:10.933Z,25.00
2018-07-15T11:54:15.761Z,24.90
2018-07-15T11:56:54.459Z,25.00
2018-07-15T11:59:27.461Z,24.70
2018-07-15T12:02:00.341Z,24.60
2018-07-15T12:07:03.693Z,24.40
2018-07-15T12:09:35.845Z,24.30
2018-07-15T12:12:06.587Z,24.30
2018-07-15T12:14:36.153Z,24.30
2018-07-15T12:19:41.935Z,23.90
2018-07-15T12:22:21.581Z,23.90
2018-07-15T12:24:54.558Z,23.80
2018-07-15T12:30:00.645Z,23.00
2018-07-15T12:32:33.938Z,22.50
2018-07-15T12:35:12.467Z,22.50
2018-07-15T12:37:44.443Z,22.40
2018-07-15T12:40:16.731Z,22.30
2018-07-15T12:42:47.937Z,22.10
2018-07-15T12:45:21.981Z,21.80
2018-07-15T12:47:51.649Z,21.40
2018-07-15T12:50:24.262Z,20.80
2018-07-15T12:52:54.077Z,20.20
2018-07-15T12:55:25.198Z,20.00
2018-07-15T12:57:56.322Z,19.80
2018-07-15T13:00:25.912Z,19.70
2018-07-15T13:02:56.845Z,19.70
2018-07-15T13:05:31.953Z,19.50
2018-07-15T13:08:07.901Z,19.20
2018-07-15T13:10:38.966Z,19.00
2018-07-15T13:13:14.551Z,19.10
2018-07-15T13:15:43.298Z,18.80
2018-07-15T13:18:15.636Z,18.60
2018-07-15T13:20:46.315Z,18.30
2018-07-15T13:23:19.113Z,18.10
2018-07-15T13:25:49.302Z,17.70
2018-07-15T13:28:19.743Z,17.70
2018-07-15T13:30:52.286Z,17.60
2018-07-15T13:33:24.596Z,17.50
2018-07-15T13:35:57.544Z,17.40
2018-07-15T13:38:28.083Z,17.30
2018-07-15T13:40:58.715Z,17.00
2018-07-15T13:43:32.519Z,16.90
2018-07-15T13:48:48.857Z,16.80
2018-07-15T13:51:22.308Z,16.70
2018-07-15T13:53:51.589Z,16.60
2018-07-15T13:56:22.768Z,16.50
2018-07-15T13:58:55.725Z,16.50
2018-07-15T14:01:27.690Z,16.50
2018-07-15T14:03:57.917Z,16.50
2018-07-15T14:06:27.474Z,16.50
2018-07-15T14:08:57.893Z,16.50
2018-07-15T14:11:33.558Z,16.50
2018-07-15T14:14:03.469Z,16.50
2018-07-15T14:16:36.416Z,16.60
2018-07-15T14:19:05.372Z,16.50
2018-07-15T14:21:36.764Z,16.40
2018-07-15T14:24:08.013Z,16.30
2018-07-15T14:26:43.033Z,16.30
2018-07-15T14:29:13.282Z,16.30
2018-07-15T14:31:42.787Z,16.50
2018-07-15T14:34:16.948Z,16.50
2018-07-15T14:36:46.562Z,16.50
2018-07-15T14:39:15.129Z,16.50
2018-07-15T14:41:43.593Z,16.60
2018-07-15T14:44:12.093Z,16.60
2018-07-15T14:46:40.695Z,16.50
2018-07-15T14:49:09.331Z,16.50
2018-07-15T14:51:37.923Z,16.40
2018-07-15T14:54:06.548Z,16.40
2018-07-15T14:56:35.117Z,16.50
2018-07-15T14:59:03.568Z,16.60
2018-07-15T15:01:32.539Z,16.70
2018-07-15T15:06:29.325Z,16.70
2018-07-15T15:08:57.829Z,16.70
2018-07-15T15:11:26.348Z,16.70
2018-07-15T15:13:54.849Z,16.70
2018-07-15T15:16:23.347Z,16.80
2018-07-15T15:18:51.857Z,16.90
2018-07-15T15:21:20.354Z,17.10
2018-07-15T15:23:48.876Z,17.40
2018-07-15T15:28:45.461Z,18.00
2018-07-15T15:31:14.064Z,18.10
2018-07-15T15:33:42.771Z,18.20
2018-07-15T15:36:11.241Z,18.30
2018-07-15T15:38:39.752Z,18.40
2018-07-15T15:41:08.396Z,18.40
2018-07-15T15:43:37.216Z,18.30
2018-07-15T15:46:05.681Z,18.30
2018-07-15T15:48:34.473Z,18.30
2018-07-15T15:51:03.200Z,18.30
2018-07-15T15:53:31.862Z,18.30
2018-07-15T15:56:00.365Z,18.30
2018-07-15T16:00:57.324Z,18.40
2018-07-15T16:03:25.921Z,18.40
2018-07-15T16:05:55.667Z,18.40
2018-07-15T16:08:24.133Z,18.50
2018-07-15T16:10:52.608Z,18.60
2018-07-15T16:13:21.163Z,18.90
2018-07-15T16:15:49.656Z,19.00
2018-07-15T16:20:47.532Z,18.80
2018-07-15T16:23:16.073Z,19.00
2018-07-15T16:25:45.145Z,19.00
2018-07-15T16:28:13.642Z,19.00
2018-07-15T16:30:42.189Z,19.00
2018-07-15T16:33:10.717Z,19.00
2018-07-15T16:35:40.463Z,19.00
2018-07-15T16:38:09.047Z,19.00
2018-07-15T16:43:06.742Z,19.30
2018-07-15T16:45:35.184Z,19.40
2018-07-15T16:48:03.756Z,19.40
2018-07-15T16:50:32.725Z,19.50
2018-07-15T16:53:01.277Z,19.50
2018-07-15T16:55:29.834Z,19.60
2018-07-15T16:57:59.016Z,19.60
2018-07-15T17:00:27.539Z,19.70
2018-07-15T17:02:55.989Z,19.70
2018-07-15T17:05:24.518Z,19.70
2018-07-15T17:07:52.985Z,19.70
2018-07-15T17:10:21.453Z,19.60
2018-07-15T17:12:50.060Z,19.50
2018-07-15T17:15:18.706Z,19.40
2018-07-15T17:17:47.254Z,19.40
2018-07-15T17:20:15.881Z,19.40
2018-07-15T17:22:44.461Z,19.40
2018-07-15T17:25:13.039Z,19.40
2018-07-15T17:27:41.575Z,19.50
2018-07-15T17:30:10.103Z,19.50
2018-07-15T17:32:38.713Z,19.60
2018-07-15T17:35:07.537Z,19.50
2018-07-15T17:37:36.180Z,19.70
2018-07-15T17:40:04.993Z,19.70
2018-07-15T17:42:34.168Z,19.80
2018-07-15T17:45:02.761Z,19.70
2018-07-15T17:47:31.262Z,19.60
2018-07-15T17:49:59.813Z,19.50
2018-07-15T17:52:28.289Z,19.50
2018-07-15T17:54:56.840Z,19.40
2018-07-15T17:57:25.322Z,19.30
2018-07-15T17:59:53.810Z,19.30
2018-07-15T18:02:22.313Z,19.10
2018-07-15T18:04:50.871Z,19.00
2018-07-15T18:07:19.598Z,18.70
2018-07-15T18:09:48.190Z,18.60
2018-07-15T18:12:16.887Z,18.50
2018-07-15T18:14:45.356Z,18.50
2018-07-15T18:17:14.789Z,18.50
2018-07-15T18:19:43.303Z,18.50
2018-07-15T18:22:11.839Z,18.50
2018-07-15T18:24:41.120Z,18.60
2018-07-15T18:27:10.550Z,18.60
2018-07-15T18:29:39.169Z,18.60
2018-07-15T18:32:07.971Z,18.50
2018-07-15T18:34:36.800Z,18.40
2018-07-15T18:37:06.974Z,18.40
2018-07-15T18:39:36.482Z,18.40
2018-07-15T18:42:05.365Z,18.30
2018-07-15T18:44:34.461Z,18.30
2018-07-15T18:47:03.762Z,18.30
2018-07-15T18:49:32.755Z,18.20
2018-07-15T18:52:01.562Z,18.10
2018-07-15T18:54:30.122Z,18.00
2018-07-15T18:56:58.630Z,17.90
2018-07-15T18:59:28.208Z,17.80
2018-07-15T19:01:56.718Z,17.70
2018-07-15T19:04:25.353Z,17.70
2018-07-15T19:06:53.821Z,17.60
2018-07-15T19:09:22.336Z,17.60
2018-07-15T19:11:50.774Z,17.40
2018-07-15T19:14:19.285Z,17.40
2018-07-15T19:16:47.749Z,17.20
2018-07-15T19:19:16.314Z,17.20
2018-07-15T19:21:44.913Z,17.10
2018-07-15T19:24:13.506Z,16.90
2018-07-15T19:26:41.962Z,16.70
2018-07-15T19:29:10.484Z,16.70
2018-07-15T19:31:39.097Z,16.60
2018-07-15T19:34:07.623Z,16.60
2018-07-15T19:36:36.137Z,16.40
2018-07-15T19:39:05.122Z,16.20
2018-07-15T19:41:33.564Z,16.10
2018-07-15T19:44:02.174Z,16.10
2018-07-15T19:46:30.676Z,16.00
2018-07-15T19:48:59.170Z,15.90
2018-07-15T19:51:27.622Z,15.90
2018-07-15T19:53:56.092Z,15.90
2018-07-15T19:56:24.675Z,15.90
2018-07-15T19:58:53.235Z,15.90
2018-07-15T20:01:21.839Z,16.00
2018-07-15T20:03:50.255Z,16.00
2018-07-15T20:06:18.728Z,16.00
2018-07-15T20:08:47.261Z,16.00
2018-07-15T20:11:15.901Z,15.90
2018-07-15T20:16:12.600Z,16.00
2018-07-15T20:18:41.107Z,16.00
2018-07-15T20:21:09.733Z,16.00
2018-07-15T20:23:38.256Z,16.00
2018-07-15T20:26:06.721Z,16.00
2018-07-15T20:28:35.174Z,16.00
2018-07-15T20:31:03.732Z,16.00
2018-07-15T20:33:32.428Z,15.90
2018-07-15T20:36:00.874Z,15.90
2018-07-15T20:38:29.395Z,15.90
2018-07-15T20:40:58.582Z,15.90
2018-07-15T20:43:27.137Z,16.00
2018-07-15T20:45:55.644Z,15.90
2018-07-15T20:48:24.092Z,15.90
2018-07-15T20:50:52.564Z,15.90
2018-07-15T20:53:21.032Z,15.90
2018-07-15T20:55:49.506Z,15.90
2018-07-15T20:58:17.986Z,15.90
2018-07-15T21:00:46.434Z,15.80
2018-07-15T21:03:15.639Z,15.80
2018-07-15T21:05:44.146Z,15.80
2018-07-15T21:10:40.824Z,15.80
2018-07-15T21:13:09.862Z,15.70
2018-07-15T21:15:38.353Z,15.70
2018-07-15T21:18:06.817Z,15.70
2018-07-15T21:20:35.299Z,15.80
2018-07-15T21:23:03.809Z,15.70
2018-07-15T21:25:33.077Z,15.60
2018-07-15T21:28:01.609Z,15.60
2018-07-15T21:30:30.105Z,15.60
2018-07-15T21:32:58.547Z,15.50
2018-07-15T21:35:27.025Z,15.50
2018-07-15T21:37:55.565Z,15.50
2018-07-15T21:40:24.033Z,15.40
2018-07-15T21:42:52.609Z,15.50
2018-07-15T21:45:21.061Z,15.40
2018-07-15T21:47:49.733Z,15.30
2018-07-15T21:50:18.248Z,15.40
2018-07-15T21:52:46.997Z,15.40
2018-07-15T21:55:15.597Z,15.30
2018-07-15T21:57:44.044Z,15.30
2018-07-15T22:00:12.603Z,15.20
2018-07-15T22:02:41.093Z,15.20
2018-07-15T22:05:10.214Z,15.20
2018-07-15T22:07:49.924Z,15.20
2018-07-15T22:10:51.553Z,15.20
2018-07-15T22:13:19.992Z,15.10
2018-07-15T22:15:48.569Z,15.10
2018-07-15T22:18:17.104Z,15.10
2018-07-15T22:20:45.605Z,15.10
2018-07-15T22:23:14.019Z,15.00
2018-07-15T22:25:42.510Z,15.00
2018-07-15T22:28:11.074Z,15.00
2018-07-15T22:30:39.568Z,14.90
2018-07-15T22:33:08.025Z,14.80
2018-07-15T22:35:36.504Z,14.80
2018-07-15T22:38:05.013Z,14.70
2018-07-15T22:40:33.460Z,14.70
2018-07-15T22:43:01.948Z,14.70
2018-07-15T22:45:30.469Z,14.80
2018-07-15T22:47:59.060Z,14.80
2018-07-15T22:50:27.701Z,14.80
2018-07-15T22:52:56.259Z,14.80
2018-07-15T22:55:24.757Z,14.80
2018-07-15T22:57:53.534Z,14.70
2018-07-15T23:00:22.061Z,14.70
2018-07-15T23:02:50.611Z,14.70
2018-07-15T23:05:59.985Z,14.80
2018-07-15T23:08:30.829Z,14.70
2018-07-15T23:10:59.368Z,14.80
2018-07-15T23:13:27.844Z,14.80
2018-07-15T23:15:56.832Z,14.70
2018-07-15T23:18:25.376Z,14.70
2018-07-15T23:20:53.915Z,14.70
2018-07-15T23:23:22.460Z,14.70
2018-07-15T23:25:50.987Z,14.60
2018-07-15T23:28:19.468Z,14.60
2018-07-15T23:30:47.955Z,14.60
2018-07-15T23:33:16.414Z,14.60
2018-07-15T23:35:44.873Z,14.60
2018-07-15T23:38:13.681Z,14.70
2018-07-15T23:40:42.180Z,14.70
2018-07-15T23:43:10.706Z,14.60
2018-07-15T23:45:39.193Z,14.60
2018-07-15T23:48:07.807Z,14.50
2018-07-15T23:50:36.316Z,14.50
2018-07-15T23:53:04.830Z,14.60
2018-07-15T23:55:33.263Z,14.60
2018-07-15T23:58:01.718Z,14.60
